KAWO

Details ICAO KAWO
Name Arlington Municipal
Region United States
Timezone America/Los_Angeles (UTC-8.0)
Plans Departing 23
Arriving 9
Stats Elevation 465 ft / 142 m (AMSL)
Location 48.160406° -122.159723°
Runways 2
Magnetic Variation 15.827° E
Sunrise 2017-12-16 15:54:52 UTC / 2017-12-16 07:54:52 Local
Sunset 2017-12-17 00:16:45 UTC / 2017-12-16 16:16:45 Local
Advertisement - Login to hide

Runways

ID Width Length Bearing (true) Bearing (mag) Surface Threshold Offset Overrun Length
11 75 ft / 23 m 3,512 ft / 1,071 m 127.31° 111.48° Asphalt 0 ft / 0 m 0 ft / 0 m
16 108 ft / 33 m 5,321 ft / 1,622 m 179.06° 163.23° Asphalt 0 ft / 0 m 0 ft / 0 m
29 75 ft / 23 m 3,512 ft / 1,071 m 307.32° 291.49° Asphalt 0 ft / 0 m 0 ft / 0 m
34 108 ft / 33 m 5,321 ft / 1,622 m 359.06° 343.23° Asphalt 0 ft / 0 m 0 ft / 0 m

Approach Navaids

Runway Type Ident Frequency Range Bearing (true) Bearing (mag) Slope Elevation
34 Localiser IAWO 111.50 MHz 18 nm / 33 km 359.09° 343.27° - 465 ft / 142 m (AMSL)

Map

Weather


0- 5 10 15 20 25 30 35+ Temperature / ° C

Clouds and Precipitation
Forecast for 2017-12-16 18:00 UTC. Updated an hour ago

Ground ~20,000 ft ~40,000 ft Winds

METAR

KAWO 161431Z AUTO 18003KT 10SM OVC016 03/03 A3030 RMK AO2

TAF

Not found

Frequencies

Recorded 135.62 MHz AWOS 3
Unicom 122.70 MHz CTAF/UNICOM
Warning: Do not use this data for real-world aviation or navigation. No guarantee of current accuracy is given.